Terminal Aerodrome Forecast
Issued by NWS Wilmington, OH

Current Version | Previous Version | Text Only | Print | Product List | Glossary Off
Versions: 1 2 3 4 5 6 7 8 9 10 11 12 13 14 15 16 17 18 19 20 21 22

676
FTUS41 KILN 290531
TAFDAY
TAF
KDAY 290531Z 2906/3006 25004KT P6SM SCT040 SCT150
     FM290800 00000KT 6SM BR SCT150
      TEMPO 2909/2913 5SM BR
     FM291300 VRB03KT P6SM SCT025
     FM291600 22005KT P6SM VCTS BKN040CB BKN150
     FM300100 00000KT P6SM SCT030 BKN150=

USA.gov is the U.S. government's official web portal to all federal, state and local government web resources and services.